sensor_id;sensor_type;location;lat;lon;timestamp;temperature;humidity
28247;DHT22;34504;53.178;22.058;2022-07-10T00:00:08;15.00;93.30
28247;DHT22;34504;53.178;22.058;2022-07-10T00:02:58;14.90;93.40
28247;DHT22;34504;53.178;22.058;2022-07-10T00:05:27;14.90;93.30
28247;DHT22;34504;53.178;22.058;2022-07-10T00:07:55;14.90;93.40
28247;DHT22;34504;53.178;22.058;2022-07-10T00:10:23;14.90;93.50
28247;DHT22;34504;53.178;22.058;2022-07-10T00:12:51;14.90;93.30
28247;DHT22;34504;53.178;22.058;2022-07-10T00:15:19;14.80;93.30
28247;DHT22;34504;53.178;22.058;2022-07-10T00:17:49;14.80;93.30
28247;DHT22;34504;53.178;22.058;2022-07-10T00:20:17;14.80;93.20
28247;DHT22;34504;53.178;22.058;2022-07-10T00:22:45;14.80;93.30
28247;DHT22;34504;53.178;22.058;2022-07-10T00:25:13;14.80;93.20
28247;DHT22;34504;53.178;22.058;2022-07-10T00:27:41;14.70;93.10
28247;DHT22;34504;53.178;22.058;2022-07-10T00:30:09;14.70;93.20
28247;DHT22;34504;53.178;22.058;2022-07-10T00:32:37;14.70;93.50
28247;DHT22;34504;53.178;22.058;2022-07-10T00:35:05;14.70;93.20
28247;DHT22;34504;53.178;22.058;2022-07-10T00:37:33;14.60;93.30
28247;DHT22;34504;53.178;22.058;2022-07-10T00:40:02;14.60;93.20
28247;DHT22;34504;53.178;22.058;2022-07-10T00:42:32;14.60;93.30
28247;DHT22;34504;53.178;22.058;2022-07-10T00:45:00;14.60;93.40
28247;DHT22;34504;53.178;22.058;2022-07-10T00:47:27;14.60;93.40
28247;DHT22;34504;53.178;22.058;2022-07-10T00:49:55;14.60;93.50
28247;DHT22;34504;53.178;22.058;2022-07-10T00:52:23;14.60;93.40
28247;DHT22;34504;53.178;22.058;2022-07-10T00:54:51;14.70;93.60
28247;DHT22;34504;53.178;22.058;2022-07-10T00:57:20;14.60;93.60
28247;DHT22;34504;53.178;22.058;2022-07-10T00:59:49;14.60;93.60
28247;DHT22;34504;53.178;22.058;2022-07-10T01:02:17;14.60;93.60
28247;DHT22;34504;53.178;22.058;2022-07-10T01:04:45;14.60;93.70
28247;DHT22;34504;53.178;22.058;2022-07-10T01:07:13;14.60;93.90
28247;DHT22;34504;53.178;22.058;2022-07-10T01:09:43;14.60;93.70
28247;DHT22;34504;53.178;22.058;2022-07-10T01:12:11;14.70;93.70
28247;DHT22;34504;53.178;22.058;2022-07-10T01:14:40;14.60;93.70
28247;DHT22;34504;53.178;22.058;2022-07-10T01:17:13;14.60;93.80
28247;DHT22;34504;53.178;22.058;2022-07-10T01:19:47;14.60;93.60
28247;DHT22;34504;53.178;22.058;2022-07-10T01:22:15;14.60;93.70
28247;DHT22;34504;53.178;22.058;2022-07-10T01:24:42;14.60;93.60
28247;DHT22;34504;53.178;22.058;2022-07-10T01:27:12;14.50;93.60
28247;DHT22;34504;53.178;22.058;2022-07-10T01:29:40;14.50;93.50
28247;DHT22;34504;53.178;22.058;2022-07-10T01:32:08;14.50;93.60
28247;DHT22;34504;53.178;22.058;2022-07-10T01:34:37;14.50;93.50
28247;DHT22;34504;53.178;22.058;2022-07-10T01:37:04;14.50;93.50
28247;DHT22;34504;53.178;22.058;2022-07-10T01:39:34;14.50;93.30
28247;DHT22;34504;53.178;22.058;2022-07-10T01:42:02;14.40;93.30
28247;DHT22;34504;53.178;22.058;2022-07-10T01:44:30;14.40;93.30
28247;DHT22;34504;53.178;22.058;2022-07-10T01:46:57;14.40;93.30
28247;DHT22;34504;53.178;22.058;2022-07-10T01:49:25;14.30;93.30
28247;DHT22;34504;53.178;22.058;2022-07-10T01:51:55;14.30;93.20
28247;DHT22;34504;53.178;22.058;2022-07-10T01:54:23;14.30;93.30
28247;DHT22;34504;53.178;22.058;2022-07-10T01:56:50;14.30;93.30
28247;DHT22;34504;53.178;22.058;2022-07-10T01:59:19;14.30;93.20
28247;DHT22;34504;53.178;22.058;2022-07-10T02:01:47;14.30;93.20
28247;DHT22;34504;53.178;22.058;2022-07-10T02:04:17;14.30;93.10
28247;DHT22;34504;53.178;22.058;2022-07-10T02:07:04;14.20;93.00
28247;DHT22;34504;53.178;22.058;2022-07-10T02:09:31;14.10;93.00
28247;DHT22;34504;53.178;22.058;2022-07-10T02:11:59;14.10;93.00
28247;DHT22;34504;53.178;22.058;2022-07-10T02:14:27;14.10;93.20
28247;DHT22;34504;53.178;22.058;2022-07-10T02:16:54;14.10;92.90
28247;DHT22;34504;53.178;22.058;2022-07-10T02:19:23;14.00;92.90
28247;DHT22;34504;53.178;22.058;2022-07-10T02:21:50;14.00;92.80
28247;DHT22;34504;53.178;22.058;2022-07-10T02:24:18;14.00;92.80
28247;DHT22;34504;53.178;22.058;2022-07-10T02:26:46;14.00;92.80
28247;DHT22;34504;53.178;22.058;2022-07-10T02:29:14;14.00;92.60
28247;DHT22;34504;53.178;22.058;2022-07-10T02:31:42;14.00;92.80
28247;DHT22;34504;53.178;22.058;2022-07-10T02:34:10;14.00;92.80
28247;DHT22;34504;53.178;22.058;2022-07-10T02:36:38;13.90;92.50
28247;DHT22;34504;53.178;22.058;2022-07-10T02:39:06;13.90;92.90
28247;DHT22;34504;53.178;22.058;2022-07-10T02:41:34;13.90;92.90
28247;DHT22;34504;53.178;22.058;2022-07-10T02:44:03;13.90;92.90
28247;DHT22;34504;53.178;22.058;2022-07-10T02:46:31;13.80;92.90
28247;DHT22;34504;53.178;22.058;2022-07-10T02:48:58;13.80;93.20
28247;DHT22;34504;53.178;22.058;2022-07-10T02:51:26;13.90;93.30
28247;DHT22;34504;53.178;22.058;2022-07-10T02:53:54;14.00;93.60
28247;DHT22;34504;53.178;22.058;2022-07-10T02:56:21;14.10;93.40
28247;DHT22;34504;53.178;22.058;2022-07-10T02:58:49;14.20;93.40
28247;DHT22;34504;53.178;22.058;2022-07-10T03:01:17;14.30;92.80
28247;DHT22;34504;53.178;22.058;2022-07-10T03:03:44;14.40;92.60
28247;DHT22;34504;53.178;22.058;2022-07-10T03:06:12;14.50;92.70
28247;DHT22;34504;53.178;22.058;2022-07-10T03:08:40;14.70;92.70
28247;DHT22;34504;53.178;22.058;2022-07-10T03:11:09;14.80;92.10
28247;DHT22;34504;53.178;22.058;2022-07-10T03:13:37;14.90;92.20
28247;DHT22;34504;53.178;22.058;2022-07-10T03:16:04;15.10;92.40
28247;DHT22;34504;53.178;22.058;2022-07-10T03:18:32;15.20;91.50
28247;DHT22;34504;53.178;22.058;2022-07-10T03:21:00;15.40;91.50
28247;DHT22;34504;53.178;22.058;2022-07-10T03:23:28;15.60;91.40
28247;DHT22;34504;53.178;22.058;2022-07-10T03:25:55;15.70;91.10
28247;DHT22;34504;53.178;22.058;2022-07-10T03:28:23;15.90;90.50
28247;DHT22;34504;53.178;22.058;2022-07-10T03:30:51;16.00;90.00
28247;DHT22;34504;53.178;22.058;2022-07-10T03:33:20;16.10;89.70
28247;DHT22;34504;53.178;22.058;2022-07-10T03:35:48;16.10;89.40
28247;DHT22;34504;53.178;22.058;2022-07-10T03:38:16;16.00;89.40
28247;DHT22;34504;53.178;22.058;2022-07-10T03:40:45;16.00;89.50
28247;DHT22;34504;53.178;22.058;2022-07-10T03:43:15;16.00;89.30
28247;DHT22;34504;53.178;22.058;2022-07-10T03:45:43;15.90;88.40
28247;DHT22;34504;53.178;22.058;2022-07-10T03:48:11;15.80;88.50
28247;DHT22;34504;53.178;22.058;2022-07-10T03:50:39;15.80;88.40
28247;DHT22;34504;53.178;22.058;2022-07-10T03:53:08;15.80;88.30
28247;DHT22;34504;53.178;22.058;2022-07-10T03:55:36;15.80;88.80
28247;DHT22;34504;53.178;22.058;2022-07-10T03:58:03;15.70;88.80
28247;DHT22;34504;53.178;22.058;2022-07-10T04:00:32;15.70;88.60
28247;DHT22;34504;53.178;22.058;2022-07-10T04:03:00;15.60;88.70
28247;DHT22;34504;53.178;22.058;2022-07-10T04:05:28;15.60;88.90
28247;DHT22;34504;53.178;22.058;2022-07-10T04:07:56;15.60;89.70
28247;DHT22;34504;53.178;22.058;2022-07-10T04:10:25;15.70;89.50
28247;DHT22;34504;53.178;22.058;2022-07-10T04:12:53;15.80;90.20
28247;DHT22;34504;53.178;22.058;2022-07-10T04:15:21;16.00;89.50
28247;DHT22;34504;53.178;22.058;2022-07-10T04:17:49;16.10;88.50
28247;DHT22;34504;53.178;22.058;2022-07-10T04:20:17;16.30;88.60
28247;DHT22;34504;53.178;22.058;2022-07-10T04:22:47;16.40;87.80
28247;DHT22;34504;53.178;22.058;2022-07-10T04:25:15;16.50;87.00
28247;DHT22;34504;53.178;22.058;2022-07-10T04:27:42;16.60;85.00
28247;DHT22;34504;53.178;22.058;2022-07-10T04:30:10;16.80;86.20
28247;DHT22;34504;53.178;22.058;2022-07-10T04:32:38;16.80;84.90
28247;DHT22;34504;53.178;22.058;2022-07-10T04:35:05;16.90;84.90
28247;DHT22;34504;53.178;22.058;2022-07-10T04:37:33;17.00;84.00
28247;DHT22;34504;53.178;22.058;2022-07-10T04:40:01;17.10;83.50
28247;DHT22;34504;53.178;22.058;2022-07-10T04:42:29;17.20;84.10
28247;DHT22;34504;53.178;22.058;2022-07-10T04:44:57;17.30;83.20
28247;DHT22;34504;53.178;22.058;2022-07-10T04:47:25;17.40;82.70
28247;DHT22;34504;53.178;22.058;2022-07-10T04:49:53;17.50;83.00
28247;DHT22;34504;53.178;22.058;2022-07-10T04:52:21;17.50;82.40
28247;DHT22;34504;53.178;22.058;2022-07-10T04:54:48;17.50;80.60
28247;DHT22;34504;53.178;22.058;2022-07-10T04:57:16;17.50;80.40
28247;DHT22;34504;53.178;22.058;2022-07-10T04:59:45;17.50;79.70
28247;DHT22;34504;53.178;22.058;2022-07-10T05:02:12;17.60;81.70
28247;DHT22;34504;53.178;22.058;2022-07-10T05:04:41;17.70;80.80
28247;DHT22;34504;53.178;22.058;2022-07-10T05:07:09;17.60;80.70
28247;DHT22;34504;53.178;22.058;2022-07-10T05:09:38;17.70;80.40
28247;DHT22;34504;53.178;22.058;2022-07-10T05:12:09;17.70;79.20
28247;DHT22;34504;53.178;22.058;2022-07-10T05:14:40;17.60;78.60
28247;DHT22;34504;53.178;22.058;2022-07-10T05:17:08;17.60;80.30
28247;DHT22;34504;53.178;22.058;2022-07-10T05:19:35;17.80;79.40
28247;DHT22;34504;53.178;22.058;2022-07-10T05:22:03;17.80;78.90
28247;DHT22;34504;53.178;22.058;2022-07-10T05:24:31;17.80;80.10
28247;DHT22;34504;53.178;22.058;2022-07-10T05:27:03;17.90;79.10
28247;DHT22;34504;53.178;22.058;2022-07-10T05:29:31;17.80;78.50
28247;DHT22;34504;53.178;22.058;2022-07-10T05:31:58;17.80;79.40
28247;DHT22;34504;53.178;22.058;2022-07-10T05:34:26;17.80;80.10
28247;DHT22;34504;53.178;22.058;2022-07-10T05:36:54;17.90;80.10
28247;DHT22;34504;53.178;22.058;2022-07-10T05:39:21;17.90;78.40
28247;DHT22;34504;53.178;22.058;2022-07-10T05:41:53;17.90;77.80
28247;DHT22;34504;53.178;22.058;2022-07-10T05:44:22;17.90;78.80
28247;DHT22;34504;53.178;22.058;2022-07-10T05:46:49;18.00;79.80
28247;DHT22;34504;53.178;22.058;2022-07-10T05:49:17;18.10;78.70
28247;DHT22;34504;53.178;22.058;2022-07-10T05:51:47;18.20;78.70
28247;DHT22;34504;53.178;22.058;2022-07-10T05:54:14;18.20;76.70
28247;DHT22;34504;53.178;22.058;2022-07-10T05:56:42;18.30;77.20
28247;DHT22;34504;53.178;22.058;2022-07-10T05:59:12;18.30;76.40
28247;DHT22;34504;53.178;22.058;2022-07-10T06:01:40;18.20;77.40
28247;DHT22;34504;53.178;22.058;2022-07-10T06:04:07;18.20;76.70
28247;DHT22;34504;53.178;22.058;2022-07-10T06:06:35;18.20;77.80
28247;DHT22;34504;53.178;22.058;2022-07-10T06:09:06;18.30;76.70
28247;DHT22;34504;53.178;22.058;2022-07-10T06:11:34;18.30;77.50
28247;DHT22;34504;53.178;22.058;2022-07-10T06:14:02;18.30;77.50
28247;DHT22;34504;53.178;22.058;2022-07-10T06:16:30;18.30;78.50
28247;DHT22;34504;53.178;22.058;2022-07-10T06:18:58;18.40;79.50
28247;DHT22;34504;53.178;22.058;2022-07-10T06:21:26;18.50;77.10
28247;DHT22;34504;53.178;22.058;2022-07-10T06:23:54;18.40;76.40
28247;DHT22;34504;53.178;22.058;2022-07-10T06:26:21;18.50;76.30
28247;DHT22;34504;53.178;22.058;2022-07-10T06:28:49;18.50;76.60
28247;DHT22;34504;53.178;22.058;2022-07-10T06:31:17;18.60;75.70
28247;DHT22;34504;53.178;22.058;2022-07-10T06:33:44;18.80;76.80
28247;DHT22;34504;53.178;22.058;2022-07-10T06:36:14;18.90;76.40
28247;DHT22;34504;53.178;22.058;2022-07-10T06:38:41;18.90;75.30
28247;DHT22;34504;53.178;22.058;2022-07-10T06:41:10;18.90;74.60
28247;DHT22;34504;53.178;22.058;2022-07-10T06:43:38;19.00;76.30
28247;DHT22;34504;53.178;22.058;2022-07-10T06:46:11;19.10;75.10
28247;DHT22;34504;53.178;22.058;2022-07-10T06:48:39;19.10;73.70
28247;DHT22;34504;53.178;22.058;2022-07-10T06:51:08;19.00;72.20
28247;DHT22;34504;53.178;22.058;2022-07-10T06:53:42;19.00;72.70
28247;DHT22;34504;53.178;22.058;2022-07-10T06:56:10;18.90;71.00
28247;DHT22;34504;53.178;22.058;2022-07-10T06:58:37;18.90;72.00
28247;DHT22;34504;53.178;22.058;2022-07-10T07:01:06;19.00;72.70
28247;DHT22;34504;53.178;22.058;2022-07-10T07:03:34;19.10;70.80
28247;DHT22;34504;53.178;22.058;2022-07-10T07:06:01;19.10;69.40
28247;DHT22;34504;53.178;22.058;2022-07-10T07:08:29;19.00;70.20
28247;DHT22;34504;53.178;22.058;2022-07-10T07:10:57;19.00;70.40
28247;DHT22;34504;53.178;22.058;2022-07-10T07:13:25;19.00;71.80
28247;DHT22;34504;53.178;22.058;2022-07-10T07:15:53;19.00;69.60
28247;DHT22;34504;53.178;22.058;2022-07-10T07:18:28;18.90;72.60
28247;DHT22;34504;53.178;22.058;2022-07-10T07:21:05;19.00;71.80
28247;DHT22;34504;53.178;22.058;2022-07-10T07:23:51;19.10;72.00
28247;DHT22;34504;53.178;22.058;2022-07-10T07:26:19;19.30;72.00
28247;DHT22;34504;53.178;22.058;2022-07-10T07:28:47;19.30;70.40
28247;DHT22;34504;53.178;22.058;2022-07-10T07:31:14;19.30;69.60
28247;DHT22;34504;53.178;22.058;2022-07-10T07:33:45;19.40;69.80
28247;DHT22;34504;53.178;22.058;2022-07-10T07:36:13;19.40;68.60
28247;DHT22;34504;53.178;22.058;2022-07-10T07:38:41;19.40;66.40
28247;DHT22;34504;53.178;22.058;2022-07-10T07:41:09;19.30;64.90
28247;DHT22;34504;53.178;22.058;2022-07-10T07:43:39;19.20;65.50
28247;DHT22;34504;53.178;22.058;2022-07-10T07:46:08;19.20;65.80
28247;DHT22;34504;53.178;22.058;2022-07-10T07:48:40;19.30;66.70
28247;DHT22;34504;53.178;22.058;2022-07-10T07:51:10;19.30;66.10
28247;DHT22;34504;53.178;22.058;2022-07-10T07:53:41;19.40;64.60
28247;DHT22;34504;53.178;22.058;2022-07-10T07:56:12;19.40;65.80
28247;DHT22;34504;53.178;22.058;2022-07-10T07:58:40;19.40;60.10
28247;DHT22;34504;53.178;22.058;2022-07-10T08:01:08;19.40;62.90
28247;DHT22;34504;53.178;22.058;2022-07-10T08:03:36;19.50;61.80
28247;DHT22;34504;53.178;22.058;2022-07-10T08:06:24;19.50;62.40
28247;DHT22;34504;53.178;22.058;2022-07-10T08:08:52;19.50;62.20
28247;DHT22;34504;53.178;22.058;2022-07-10T08:11:19;19.60;62.70
28247;DHT22;34504;53.178;22.058;2022-07-10T08:13:47;19.50;62.00
28247;DHT22;34504;53.178;22.058;2022-07-10T08:16:15;19.60;62.10
28247;DHT22;34504;53.178;22.058;2022-07-10T08:18:45;19.60;64.20
28247;DHT22;34504;53.178;22.058;2022-07-10T08:21:12;19.70;64.30
28247;DHT22;34504;53.178;22.058;2022-07-10T08:23:40;19.70;61.60
28247;DHT22;34504;53.178;22.058;2022-07-10T08:26:08;19.70;62.30
28247;DHT22;34504;53.178;22.058;2022-07-10T08:28:36;19.70;62.50
28247;DHT22;34504;53.178;22.058;2022-07-10T08:31:06;19.60;60.70
28247;DHT22;34504;53.178;22.058;2022-07-10T08:33:43;19.60;61.90
28247;DHT22;34504;53.178;22.058;2022-07-10T08:36:18;19.60;60.90
28247;DHT22;34504;53.178;22.058;2022-07-10T08:39:06;19.60;61.80
28247;DHT22;34504;53.178;22.058;2022-07-10T08:41:34;19.70;62.20
28247;DHT22;34504;53.178;22.058;2022-07-10T08:44:02;19.80;61.40
28247;DHT22;34504;53.178;22.058;2022-07-10T08:46:30;19.80;59.80
28247;DHT22;34504;53.178;22.058;2022-07-10T08:48:59;19.90;61.00
28247;DHT22;34504;53.178;22.058;2022-07-10T08:54:17;20.00;59.20
28247;DHT22;34504;53.178;22.058;2022-07-10T08:56:48;20.00;59.40
28247;DHT22;34504;53.178;22.058;2022-07-10T08:59:20;20.10;58.30
28247;DHT22;34504;53.178;22.058;2022-07-10T09:01:48;20.20;59.90
28247;DHT22;34504;53.178;22.058;2022-07-10T09:04:20;20.20;59.80
28247;DHT22;34504;53.178;22.058;2022-07-10T09:06:48;20.20;59.00
28247;DHT22;34504;53.178;22.058;2022-07-10T09:09:16;20.30;60.00
28247;DHT22;34504;53.178;22.058;2022-07-10T09:11:47;20.30;58.70
28247;DHT22;34504;53.178;22.058;2022-07-10T09:14:19;20.40;59.40
28247;DHT22;34504;53.178;22.058;2022-07-10T09:17:01;20.50;59.80
28247;DHT22;34504;53.178;22.058;2022-07-10T09:19:29;20.50;59.00
28247;DHT22;34504;53.178;22.058;2022-07-10T09:22:06;20.60;58.90
28247;DHT22;34504;53.178;22.058;2022-07-10T09:24:41;20.60;57.20
28247;DHT22;34504;53.178;22.058;2022-07-10T09:27:09;20.60;57.10
28247;DHT22;34504;53.178;22.058;2022-07-10T09:29:49;20.50;57.50
28247;DHT22;34504;53.178;22.058;2022-07-10T09:32:22;20.60;58.60
28247;DHT22;34504;53.178;22.058;2022-07-10T09:34:50;20.80;59.80
28247;DHT22;34504;53.178;22.058;2022-07-10T09:37:39;20.90;56.80
28247;DHT22;34504;53.178;22.058;2022-07-10T09:40:08;20.90;56.50
28247;DHT22;34504;53.178;22.058;2022-07-10T09:42:38;20.90;56.60
28247;DHT22;34504;53.178;22.058;2022-07-10T09:47:55;20.90;55.70
28247;DHT22;34504;53.178;22.058;2022-07-10T09:50:28;20.80;57.20
28247;DHT22;34504;53.178;22.058;2022-07-10T09:52:57;20.80;58.00
28247;DHT22;34504;53.178;22.058;2022-07-10T09:55:31;20.80;60.30
28247;DHT22;34504;53.178;22.058;2022-07-10T09:58:01;20.70;59.80
28247;DHT22;34504;53.178;22.058;2022-07-10T10:00:30;20.60;59.80
28247;DHT22;34504;53.178;22.058;2022-07-10T10:05:33;20.50;58.30
28247;DHT22;34504;53.178;22.058;2022-07-10T10:10:36;20.70;58.40
28247;DHT22;34504;53.178;22.058;2022-07-10T10:13:06;20.70;56.90
28247;DHT22;34504;53.178;22.058;2022-07-10T10:15:35;20.60;58.50
28247;DHT22;34504;53.178;22.058;2022-07-10T10:18:03;20.70;58.40
28247;DHT22;34504;53.178;22.058;2022-07-10T10:20:45;20.70;55.70
28247;DHT22;34504;53.178;22.058;2022-07-10T10:26:17;20.50;52.40
28247;DHT22;34504;53.178;22.058;2022-07-10T10:31:41;20.50;54.90
28247;DHT22;34504;53.178;22.058;2022-07-10T10:34:09;20.60;56.60
28247;DHT22;34504;53.178;22.058;2022-07-10T10:41:41;20.80;56.40
28247;DHT22;34504;53.178;22.058;2022-07-10T10:49:17;20.80;57.80
28247;DHT22;34504;53.178;22.058;2022-07-10T10:52:01;20.90;56.80
28247;DHT22;34504;53.178;22.058;2022-07-10T10:54:30;21.00;57.80
28247;DHT22;34504;53.178;22.058;2022-07-10T10:57:15;21.10;55.20
28247;DHT22;34504;53.178;22.058;2022-07-10T10:59:53;21.10;56.30
28247;DHT22;34504;53.178;22.058;2022-07-10T11:02:33;21.20;56.70
28247;DHT22;34504;53.178;22.058;2022-07-10T11:13:00;20.00;59.90
28247;DHT22;34504;53.178;22.058;2022-07-10T11:15:29;19.90;58.40
28247;DHT22;34504;53.178;22.058;2022-07-10T11:18:07;19.60;58.70
28247;DHT22;34504;53.178;22.058;2022-07-10T11:20:39;19.30;60.20
28247;DHT22;34504;53.178;22.058;2022-07-10T11:23:12;19.20;60.20
28247;DHT22;34504;53.178;22.058;2022-07-10T11:25:48;19.10;60.90
28247;DHT22;34504;53.178;22.058;2022-07-10T11:28:47;18.90;60.50
28247;DHT22;34504;53.178;22.058;2022-07-10T11:31:17;18.80;62.10
28247;DHT22;34504;53.178;22.058;2022-07-10T11:33:46;18.80;62.50
28247;DHT22;34504;53.178;22.058;2022-07-10T11:36:18;18.80;62.70
28247;DHT22;34504;53.178;22.058;2022-07-10T11:38:55;18.70;64.10
28247;DHT22;34504;53.178;22.058;2022-07-10T11:41:23;18.80;63.10
28247;DHT22;34504;53.178;22.058;2022-07-10T11:43:52;18.80;62.40
28247;DHT22;34504;53.178;22.058;2022-07-10T11:46:24;18.80;61.70
28247;DHT22;34504;53.178;22.058;2022-07-10T11:48:55;18.80;61.90
28247;DHT22;34504;53.178;22.058;2022-07-10T11:51:29;18.80;62.50
28247;DHT22;34504;53.178;22.058;2022-07-10T11:54:06;19.00;63.30
28247;DHT22;34504;53.178;22.058;2022-07-10T11:56:34;19.10;62.40
28247;DHT22;34504;53.178;22.058;2022-07-10T11:59:03;19.10;62.50
28247;DHT22;34504;53.178;22.058;2022-07-10T12:01:34;19.20;63.20
28247;DHT22;34504;53.178;22.058;2022-07-10T12:04:06;19.40;62.20
28247;DHT22;34504;53.178;22.058;2022-07-10T12:06:38;19.50;60.90
28247;DHT22;34504;53.178;22.058;2022-07-10T12:09:07;19.50;61.20
28247;DHT22;34504;53.178;22.058;2022-07-10T12:11:35;19.60;59.00
28247;DHT22;34504;53.178;22.058;2022-07-10T12:16:49;19.70;59.30
28247;DHT22;34504;53.178;22.058;2022-07-10T12:19:25;19.80;59.10
28247;DHT22;34504;53.178;22.058;2022-07-10T12:25:21;19.90;59.70
28247;DHT22;34504;53.178;22.058;2022-07-10T12:27:49;20.00;58.60
28247;DHT22;34504;53.178;22.058;2022-07-10T12:30:19;20.00;58.40
28247;DHT22;34504;53.178;22.058;2022-07-10T12:32:47;20.00;55.60
28247;DHT22;34504;53.178;22.058;2022-07-10T12:35:16;20.10;55.00
28247;DHT22;34504;53.178;22.058;2022-07-10T12:37:50;20.20;56.60
28247;DHT22;34504;53.178;22.058;2022-07-10T12:40:31;20.30;58.70
28247;DHT22;34504;53.178;22.058;2022-07-10T12:43:04;20.40;57.60
28247;DHT22;34504;53.178;22.058;2022-07-10T12:45:38;20.50;57.40
28247;DHT22;34504;53.178;22.058;2022-07-10T12:48:05;20.70;57.50
28247;DHT22;34504;53.178;22.058;2022-07-10T12:50:33;20.80;56.10
28247;DHT22;34504;53.178;22.058;2022-07-10T12:53:08;20.80;55.90
28247;DHT22;34504;53.178;22.058;2022-07-10T12:55:36;20.80;55.50
28247;DHT22;34504;53.178;22.058;2022-07-10T12:58:05;20.80;56.60
28247;DHT22;34504;53.178;22.058;2022-07-10T13:00:36;20.50;59.70
28247;DHT22;34504;53.178;22.058;2022-07-10T13:03:18;20.00;61.90
28247;DHT22;34504;53.178;22.058;2022-07-10T13:05:46;19.70;63.40
28247;DHT22;34504;53.178;22.058;2022-07-10T13:11:45;19.10;66.80
28247;DHT22;34504;53.178;22.058;2022-07-10T13:15:10;18.90;69.20
28247;DHT22;34504;53.178;22.058;2022-07-10T13:17:55;18.80;71.30
28247;DHT22;34504;53.178;22.058;2022-07-10T13:20:23;18.70;70.10
28247;DHT22;34504;53.178;22.058;2022-07-10T13:22:54;18.60;71.60
28247;DHT22;34504;53.178;22.058;2022-07-10T13:25:21;18.60;72.80
28247;DHT22;34504;53.178;22.058;2022-07-10T13:27:49;18.80;71.60
28247;DHT22;34504;53.178;22.058;2022-07-10T13:30:21;18.80;72.20
28247;DHT22;34504;53.178;22.058;2022-07-10T13:32:48;18.80;71.10
28247;DHT22;34504;53.178;22.058;2022-07-10T13:35:19;18.80;71.30
28247;DHT22;34504;53.178;22.058;2022-07-10T13:37:50;18.90;71.40
28247;DHT22;34504;53.178;22.058;2022-07-10T13:40:18;19.00;71.70
28247;DHT22;34504;53.178;22.058;2022-07-10T13:42:47;19.10;71.50
28247;DHT22;34504;53.178;22.058;2022-07-10T13:45:17;19.20;71.90
28247;DHT22;34504;53.178;22.058;2022-07-10T13:47:46;19.30;69.50
28247;DHT22;34504;53.178;22.058;2022-07-10T13:50:15;19.30;69.50
28247;DHT22;34504;53.178;22.058;2022-07-10T13:52:43;19.10;70.50
28247;DHT22;34504;53.178;22.058;2022-07-10T13:55:15;18.70;72.60
28247;DHT22;34504;53.178;22.058;2022-07-10T13:57:44;18.50;75.60
28247;DHT22;34504;53.178;22.058;2022-07-10T14:00:11;18.30;78.80
28247;DHT22;34504;53.178;22.058;2022-07-10T14:02:39;18.00;79.90
28247;DHT22;34504;53.178;22.058;2022-07-10T14:05:12;17.70;81.10
28247;DHT22;34504;53.178;22.058;2022-07-10T14:07:40;17.40;83.80
28247;DHT22;34504;53.178;22.058;2022-07-10T14:10:08;17.00;84.70
28247;DHT22;34504;53.178;22.058;2022-07-10T14:12:36;16.70;86.70
28247;DHT22;34504;53.178;22.058;2022-07-10T14:15:04;16.50;87.30
28247;DHT22;34504;53.178;22.058;2022-07-10T14:17:32;16.30;88.30
28247;DHT22;34504;53.178;22.058;2022-07-10T14:20:07;16.20;89.00
28247;DHT22;34504;53.178;22.058;2022-07-10T14:22:35;16.10;90.20
28247;DHT22;34504;53.178;22.058;2022-07-10T14:25:06;16.00;90.00
28247;DHT22;34504;53.178;22.058;2022-07-10T14:27:44;15.90;89.90
28247;DHT22;34504;53.178;22.058;2022-07-10T14:30:52;15.90;90.70
28247;DHT22;34504;53.178;22.058;2022-07-10T14:33:20;16.00;91.00
28247;DHT22;34504;53.178;22.058;2022-07-10T14:35:54;16.10;90.60
28247;DHT22;34504;53.178;22.058;2022-07-10T14:38:22;16.10;90.20
28247;DHT22;34504;53.178;22.058;2022-07-10T14:41:00;16.20;90.50
28247;DHT22;34504;53.178;22.058;2022-07-10T14:43:27;16.20;89.60
28247;DHT22;34504;53.178;22.058;2022-07-10T14:46:01;16.20;88.70
28247;DHT22;34504;53.178;22.058;2022-07-10T14:48:33;16.30;90.10
28247;DHT22;34504;53.178;22.058;2022-07-10T14:51:03;16.40;90.50
28247;DHT22;34504;53.178;22.058;2022-07-10T14:53:31;16.50;89.80
28247;DHT22;34504;53.178;22.058;2022-07-10T14:56:02;16.60;89.00
28247;DHT22;34504;53.178;22.058;2022-07-10T14:58:31;16.70;87.80
28247;DHT22;34504;53.178;22.058;2022-07-10T15:01:19;16.70;85.90
28247;DHT22;34504;53.178;22.058;2022-07-10T15:03:47;16.90;88.80
28247;DHT22;34504;53.178;22.058;2022-07-10T15:06:15;17.00;87.40
28247;DHT22;34504;53.178;22.058;2022-07-10T15:08:42;17.10;88.80
28247;DHT22;34504;53.178;22.058;2022-07-10T15:11:10;17.20;86.40
28247;DHT22;34504;53.178;22.058;2022-07-10T15:13:38;17.30;87.50
28247;DHT22;34504;53.178;22.058;2022-07-10T15:16:06;17.50;88.40
28247;DHT22;34504;53.178;22.058;2022-07-10T15:18:35;17.60;88.10
28247;DHT22;34504;53.178;22.058;2022-07-10T15:21:06;17.70;88.70
28247;DHT22;34504;53.178;22.058;2022-07-10T15:23:36;17.80;89.30
28247;DHT22;34504;53.178;22.058;2022-07-10T15:26:07;17.90;88.40
28247;DHT22;34504;53.178;22.058;2022-07-10T15:28:34;18.00;88.20
28247;DHT22;34504;53.178;22.058;2022-07-10T15:31:02;18.10;87.90
28247;DHT22;34504;53.178;22.058;2022-07-10T15:33:33;18.20;84.10
28247;DHT22;34504;53.178;22.058;2022-07-10T15:36:02;18.20;84.40
28247;DHT22;34504;53.178;22.058;2022-07-10T15:38:30;18.30;83.90
28247;DHT22;34504;53.178;22.058;2022-07-10T15:40:58;18.30;84.60
28247;DHT22;34504;53.178;22.058;2022-07-10T15:43:26;18.40;85.80
28247;DHT22;34504;53.178;22.058;2022-07-10T15:45:56;18.40;85.00
28247;DHT22;34504;53.178;22.058;2022-07-10T15:48:24;18.40;84.30
28247;DHT22;34504;53.178;22.058;2022-07-10T15:50:55;18.40;83.60
28247;DHT22;34504;53.178;22.058;2022-07-10T15:53:22;18.40;83.50
28247;DHT22;34504;53.178;22.058;2022-07-10T15:55:52;18.50;84.60
28247;DHT22;34504;53.178;22.058;2022-07-10T15:58:20;18.70;85.20
28247;DHT22;34504;53.178;22.058;2022-07-10T16:00:47;18.80;84.50
28247;DHT22;34504;53.178;22.058;2022-07-10T16:03:15;18.80;84.30
28247;DHT22;34504;53.178;22.058;2022-07-10T16:05:43;18.90;82.60
28247;DHT22;34504;53.178;22.058;2022-07-10T16:08:10;18.80;82.00
28247;DHT22;34504;53.178;22.058;2022-07-10T16:10:39;18.90;82.80
28247;DHT22;34504;53.178;22.058;2022-07-10T16:13:06;18.90;83.50
28247;DHT22;34504;53.178;22.058;2022-07-10T16:15:34;18.90;83.40